sensor_id;sensor_type;location;lat;lon;timestamp;P1;durP1;ratioP1;P2;durP2;ratioP2
7957;SDS011;4024;52.172;5.378;2023-05-03T00:00:00;8.20;;;2.77;;
7957;SDS011;4024;52.172;5.378;2023-05-03T00:02:26;5.37;;;3.17;;
7957;SDS011;4024;52.172;5.378;2023-05-03T00:04:52;3.17;;;2.40;;
7957;SDS011;4024;52.172;5.378;2023-05-03T00:07:18;3.17;;;2.60;;
7957;SDS011;4024;52.172;5.378;2023-05-03T00:09:44;6.33;;;3.30;;
7957;SDS011;4024;52.172;5.378;2023-05-03T00:12:10;7.23;;;2.97;;
7957;SDS011;4024;52.172;5.378;2023-05-03T00:14:35;5.00;;;2.67;;
7957;SDS011;4024;52.172;5.378;2023-05-03T00:17:01;5.37;;;3.23;;
7957;SDS011;4024;52.172;5.378;2023-05-03T00:19:26;5.87;;;2.87;;
7957;SDS011;4024;52.172;5.378;2023-05-03T00:21:57;6.33;;;3.07;;
7957;SDS011;4024;52.172;5.378;2023-05-03T00:24:22;4.83;;;2.60;;
7957;SDS011;4024;52.172;5.378;2023-05-03T00:26:48;7.60;;;2.50;;
7957;SDS011;4024;52.172;5.378;2023-05-03T00:29:15;5.57;;;3.00;;
7957;SDS011;4024;52.172;5.378;2023-05-03T00:31:43;6.03;;;2.87;;
7957;SDS011;4024;52.172;5.378;2023-05-03T00:34:08;7.47;;;2.60;;
7957;SDS011;4024;52.172;5.378;2023-05-03T00:36:34;4.80;;;2.40;;
7957;SDS011;4024;52.172;5.378;2023-05-03T00:39:00;7.77;;;3.03;;
7957;SDS011;4024;52.172;5.378;2023-05-03T00:41:25;6.13;;;2.40;;
7957;SDS011;4024;52.172;5.378;2023-05-03T00:43:51;3.97;;;2.80;;
7957;SDS011;4024;52.172;5.378;2023-05-03T00:46:16;7.43;;;2.93;;
7957;SDS011;4024;52.172;5.378;2023-05-03T00:48:43;5.10;;;2.70;;
7957;SDS011;4024;52.172;5.378;2023-05-03T00:51:12;5.40;;;2.60;;
7957;SDS011;4024;52.172;5.378;2023-05-03T00:53:40;5.77;;;2.67;;
7957;SDS011;4024;52.172;5.378;2023-05-03T00:56:06;5.03;;;2.90;;
7957;SDS011;4024;52.172;5.378;2023-05-03T00:58:34;7.70;;;3.17;;
7957;SDS011;4024;52.172;5.378;2023-05-03T01:01:03;5.40;;;2.67;;
7957;SDS011;4024;52.172;5.378;2023-05-03T01:03:31;3.60;;;2.63;;
7957;SDS011;4024;52.172;5.378;2023-05-03T01:06:12;5.53;;;2.83;;
7957;SDS011;4024;52.172;5.378;2023-05-03T01:08:49;2.73;;;2.10;;
7957;SDS011;4024;52.172;5.378;2023-05-03T01:16:57;5.23;;;2.57;;
7957;SDS011;4024;52.172;5.378;2023-05-03T01:19:35;4.63;;;2.33;;
7957;SDS011;4024;52.172;5.378;2023-05-03T01:22:41;6.07;;;2.67;;
7957;SDS011;4024;52.172;5.378;2023-05-03T01:25:07;4.43;;;2.47;;
7957;SDS011;4024;52.172;5.378;2023-05-03T01:27:35;5.13;;;2.60;;
7957;SDS011;4024;52.172;5.378;2023-05-03T01:30:04;3.77;;;2.83;;
7957;SDS011;4024;52.172;5.378;2023-05-03T01:33:20;5.50;;;2.50;;
7957;SDS011;4024;52.172;5.378;2023-05-03T01:37:55;3.20;;;2.33;;
7957;SDS011;4024;52.172;5.378;2023-05-03T01:40:22;4.70;;;2.70;;
7957;SDS011;4024;52.172;5.378;2023-05-03T01:42:51;4.07;;;2.63;;
7957;SDS011;4024;52.172;5.378;2023-05-03T01:45:19;7.37;;;2.97;;
7957;SDS011;4024;52.172;5.378;2023-05-03T01:47:45;2.53;;;2.33;;
7957;SDS011;4024;52.172;5.378;2023-05-03T01:50:11;5.00;;;2.63;;
7957;SDS011;4024;52.172;5.378;2023-05-03T01:52:37;5.00;;;3.00;;
7957;SDS011;4024;52.172;5.378;2023-05-03T01:55:02;2.93;;;2.60;;
7957;SDS011;4024;52.172;5.378;2023-05-03T01:57:28;4.43;;;2.47;;
7957;SDS011;4024;52.172;5.378;2023-05-03T01:59:54;3.70;;;2.80;;
7957;SDS011;4024;52.172;5.378;2023-05-03T02:02:19;3.43;;;2.63;;
7957;SDS011;4024;52.172;5.378;2023-05-03T02:04:46;7.93;;;2.67;;
7957;SDS011;4024;52.172;5.378;2023-05-03T02:07:13;6.43;;;2.87;;
7957;SDS011;4024;52.172;5.378;2023-05-03T02:09:38;4.70;;;2.80;;
7957;SDS011;4024;52.172;5.378;2023-05-03T02:12:06;6.47;;;2.53;;
7957;SDS011;4024;52.172;5.378;2023-05-03T02:14:32;6.00;;;2.87;;
7957;SDS011;4024;52.172;5.378;2023-05-03T02:16:58;4.57;;;2.80;;
7957;SDS011;4024;52.172;5.378;2023-05-03T02:19:24;4.60;;;2.67;;
7957;SDS011;4024;52.172;5.378;2023-05-03T02:21:50;8.67;;;2.97;;
7957;SDS011;4024;52.172;5.378;2023-05-03T02:24:16;5.63;;;2.90;;
7957;SDS011;4024;52.172;5.378;2023-05-03T02:26:43;6.60;;;2.63;;
7957;SDS011;4024;52.172;5.378;2023-05-03T02:29:09;7.90;;;3.20;;
7957;SDS011;4024;52.172;5.378;2023-05-03T02:31:35;4.37;;;2.97;;
7957;SDS011;4024;52.172;5.378;2023-05-03T02:34:00;3.87;;;2.50;;
7957;SDS011;4024;52.172;5.378;2023-05-03T02:36:26;4.50;;;2.60;;
7957;SDS011;4024;52.172;5.378;2023-05-03T02:38:52;4.57;;;2.50;;
7957;SDS011;4024;52.172;5.378;2023-05-03T02:41:17;4.00;;;2.50;;
7957;SDS011;4024;52.172;5.378;2023-05-03T02:43:43;4.57;;;3.13;;
7957;SDS011;4024;52.172;5.378;2023-05-03T02:46:09;4.87;;;2.60;;
7957;SDS011;4024;52.172;5.378;2023-05-03T02:48:34;5.13;;;2.77;;
7957;SDS011;4024;52.172;5.378;2023-05-03T02:51:01;5.27;;;2.30;;
7957;SDS011;4024;52.172;5.378;2023-05-03T02:53:27;6.13;;;2.90;;
7957;SDS011;4024;52.172;5.378;2023-05-03T02:55:53;5.73;;;2.53;;
7957;SDS011;4024;52.172;5.378;2023-05-03T02:58:19;5.40;;;2.77;;
7957;SDS011;4024;52.172;5.378;2023-05-03T03:00:44;4.27;;;3.13;;
7957;SDS011;4024;52.172;5.378;2023-05-03T03:03:10;5.73;;;2.50;;
7957;SDS011;4024;52.172;5.378;2023-05-03T03:05:35;3.13;;;2.40;;
7957;SDS011;4024;52.172;5.378;2023-05-03T03:08:01;4.57;;;3.07;;
7957;SDS011;4024;52.172;5.378;2023-05-03T03:10:27;8.67;;;3.30;;
7957;SDS011;4024;52.172;5.378;2023-05-03T03:12:52;3.47;;;2.33;;
7957;SDS011;4024;52.172;5.378;2023-05-03T03:15:18;4.57;;;2.70;;
7957;SDS011;4024;52.172;5.378;2023-05-03T03:17:44;4.20;;;2.60;;
7957;SDS011;4024;52.172;5.378;2023-05-03T03:20:09;6.63;;;2.97;;
7957;SDS011;4024;52.172;5.378;2023-05-03T03:22:35;7.80;;;3.00;;
7957;SDS011;4024;52.172;5.378;2023-05-03T03:25:01;4.43;;;2.60;;
7957;SDS011;4024;52.172;5.378;2023-05-03T03:27:28;5.07;;;2.93;;
7957;SDS011;4024;52.172;5.378;2023-05-03T03:29:54;10.23;;;3.27;;
7957;SDS011;4024;52.172;5.378;2023-05-03T03:32:19;4.27;;;2.80;;
7957;SDS011;4024;52.172;5.378;2023-05-03T03:34:46;6.97;;;3.10;;
7957;SDS011;4024;52.172;5.378;2023-05-03T03:37:12;4.70;;;2.63;;
7957;SDS011;4024;52.172;5.378;2023-05-03T03:39:38;5.67;;;2.87;;
7957;SDS011;4024;52.172;5.378;2023-05-03T03:42:04;4.23;;;2.87;;
7957;SDS011;4024;52.172;5.378;2023-05-03T03:44:30;6.17;;;2.80;;
7957;SDS011;4024;52.172;5.378;2023-05-03T03:46:56;7.13;;;3.27;;
7957;SDS011;4024;52.172;5.378;2023-05-03T03:49:22;4.70;;;2.70;;
7957;SDS011;4024;52.172;5.378;2023-05-03T03:51:47;7.03;;;2.83;;
7957;SDS011;4024;52.172;5.378;2023-05-03T03:54:13;5.77;;;2.87;;
7957;SDS011;4024;52.172;5.378;2023-05-03T03:56:38;4.97;;;2.87;;
7957;SDS011;4024;52.172;5.378;2023-05-03T03:59:04;5.07;;;2.83;;
7957;SDS011;4024;52.172;5.378;2023-05-03T04:01:30;5.03;;;3.20;;
7957;SDS011;4024;52.172;5.378;2023-05-03T04:03:56;6.20;;;2.63;;
7957;SDS011;4024;52.172;5.378;2023-05-03T04:06:21;7.27;;;3.00;;
7957;SDS011;4024;52.172;5.378;2023-05-03T04:08:47;5.47;;;2.80;;
7957;SDS011;4024;52.172;5.378;2023-05-03T04:11:13;5.27;;;3.30;;
7957;SDS011;4024;52.172;5.378;2023-05-03T04:13:38;5.50;;;2.90;;
7957;SDS011;4024;52.172;5.378;2023-05-03T04:16:05;6.10;;;3.00;;
7957;SDS011;4024;52.172;5.378;2023-05-03T04:18:31;3.53;;;2.80;;
7957;SDS011;4024;52.172;5.378;2023-05-03T04:20:57;4.87;;;3.00;;
7957;SDS011;4024;52.172;5.378;2023-05-03T04:23:22;3.77;;;2.87;;
7957;SDS011;4024;52.172;5.378;2023-05-03T04:25:48;7.80;;;2.97;;
7957;SDS011;4024;52.172;5.378;2023-05-03T04:28:14;5.27;;;3.13;;
7957;SDS011;4024;52.172;5.378;2023-05-03T04:30:42;8.30;;;3.43;;
7957;SDS011;4024;52.172;5.378;2023-05-03T04:33:11;9.10;;;3.30;;
7957;SDS011;4024;52.172;5.378;2023-05-03T04:35:37;3.67;;;2.90;;
7957;SDS011;4024;52.172;5.378;2023-05-03T04:38:03;4.50;;;2.83;;
7957;SDS011;4024;52.172;5.378;2023-05-03T04:40:29;5.33;;;2.73;;
7957;SDS011;4024;52.172;5.378;2023-05-03T04:42:55;4.70;;;3.07;;
7957;SDS011;4024;52.172;5.378;2023-05-03T04:45:21;4.13;;;2.90;;
7957;SDS011;4024;52.172;5.378;2023-05-03T04:47:47;4.60;;;3.37;;
7957;SDS011;4024;52.172;5.378;2023-05-03T04:50:13;4.67;;;2.70;;
7957;SDS011;4024;52.172;5.378;2023-05-03T04:52:39;3.97;;;3.17;;
7957;SDS011;4024;52.172;5.378;2023-05-03T04:55:04;5.50;;;2.87;;
7957;SDS011;4024;52.172;5.378;2023-05-03T04:57:31;6.13;;;3.10;;
7957;SDS011;4024;52.172;5.378;2023-05-03T04:59:57;5.63;;;3.20;;
7957;SDS011;4024;52.172;5.378;2023-05-03T05:02:23;5.67;;;3.27;;
7957;SDS011;4024;52.172;5.378;2023-05-03T05:04:50;3.73;;;2.90;;
7957;SDS011;4024;52.172;5.378;2023-05-03T05:07:15;3.77;;;3.00;;
7957;SDS011;4024;52.172;5.378;2023-05-03T05:09:42;7.30;;;3.00;;
7957;SDS011;4024;52.172;5.378;2023-05-03T05:12:07;5.03;;;3.00;;
7957;SDS011;4024;52.172;5.378;2023-05-03T05:14:33;3.97;;;3.07;;
7957;SDS011;4024;52.172;5.378;2023-05-03T05:17:02;5.83;;;3.20;;
7957;SDS011;4024;52.172;5.378;2023-05-03T05:19:27;4.53;;;3.37;;
7957;SDS011;4024;52.172;5.378;2023-05-03T05:21:53;5.57;;;3.13;;
7957;SDS011;4024;52.172;5.378;2023-05-03T05:24:18;3.77;;;2.93;;
7957;SDS011;4024;52.172;5.378;2023-05-03T05:26:44;4.33;;;3.70;;
7957;SDS011;4024;52.172;5.378;2023-05-03T05:29:10;4.43;;;3.30;;
7957;SDS011;4024;52.172;5.378;2023-05-03T05:31:36;3.77;;;3.37;;
7957;SDS011;4024;52.172;5.378;2023-05-03T05:34:02;8.93;;;3.70;;
7957;SDS011;4024;52.172;5.378;2023-05-03T05:36:29;5.67;;;3.00;;
7957;SDS011;4024;52.172;5.378;2023-05-03T05:38:54;7.13;;;3.53;;
7957;SDS011;4024;52.172;5.378;2023-05-03T05:41:20;6.73;;;3.30;;
7957;SDS011;4024;52.172;5.378;2023-05-03T05:43:46;5.33;;;2.90;;
7957;SDS011;4024;52.172;5.378;2023-05-03T05:46:12;7.93;;;3.03;;
7957;SDS011;4024;52.172;5.378;2023-05-03T05:48:38;9.33;;;3.03;;
7957;SDS011;4024;52.172;5.378;2023-05-03T05:51:05;6.97;;;3.00;;
7957;SDS011;4024;52.172;5.378;2023-05-03T05:53:31;4.30;;;2.90;;
7957;SDS011;4024;52.172;5.378;2023-05-03T05:55:57;8.87;;;3.37;;
7957;SDS011;4024;52.172;5.378;2023-05-03T05:58:22;6.87;;;2.90;;
7957;SDS011;4024;52.172;5.378;2023-05-03T06:00:48;4.70;;;2.57;;
7957;SDS011;4024;52.172;5.378;2023-05-03T06:03:14;7.33;;;2.87;;
7957;SDS011;4024;52.172;5.378;2023-05-03T06:05:40;4.87;;;2.83;;
7957;SDS011;4024;52.172;5.378;2023-05-03T06:08:06;8.73;;;3.23;;
7957;SDS011;4024;52.172;5.378;2023-05-03T06:10:32;9.93;;;2.63;;
7957;SDS011;4024;52.172;5.378;2023-05-03T06:12:58;5.50;;;2.63;;
7957;SDS011;4024;52.172;5.378;2023-05-03T06:15:24;4.43;;;2.53;;
7957;SDS011;4024;52.172;5.378;2023-05-03T06:17:50;5.57;;;2.80;;
7957;SDS011;4024;52.172;5.378;2023-05-03T06:20:16;3.63;;;2.60;;
7957;SDS011;4024;52.172;5.378;2023-05-03T06:22:42;4.53;;;2.73;;
7957;SDS011;4024;52.172;5.378;2023-05-03T06:25:08;4.23;;;2.83;;
7957;SDS011;4024;52.172;5.378;2023-05-03T06:27:34;3.37;;;2.40;;
7957;SDS011;4024;52.172;5.378;2023-05-03T06:30:02;3.87;;;2.80;;
7957;SDS011;4024;52.172;5.378;2023-05-03T06:32:28;4.13;;;2.77;;
7957;SDS011;4024;52.172;5.378;2023-05-03T06:34:53;6.37;;;3.37;;
7957;SDS011;4024;52.172;5.378;2023-05-03T06:37:19;4.40;;;2.67;;
7957;SDS011;4024;52.172;5.378;2023-05-03T06:39:45;3.40;;;2.60;;
7957;SDS011;4024;52.172;5.378;2023-05-03T06:42:10;9.23;;;2.90;;
7957;SDS011;4024;52.172;5.378;2023-05-03T06:44:36;7.77;;;2.73;;
7957;SDS011;4024;52.172;5.378;2023-05-03T06:47:01;3.50;;;2.27;;
7957;SDS011;4024;52.172;5.378;2023-05-03T06:49:27;4.57;;;2.13;;
7957;SDS011;4024;52.172;5.378;2023-05-03T06:51:53;4.07;;;2.17;;
7957;SDS011;4024;52.172;5.378;2023-05-03T06:54:19;4.23;;;2.37;;
7957;SDS011;4024;52.172;5.378;2023-05-03T06:56:45;3.63;;;2.37;;
7957;SDS011;4024;52.172;5.378;2023-05-03T06:59:10;4.23;;;2.40;;
7957;SDS011;4024;52.172;5.378;2023-05-03T07:01:36;4.23;;;2.33;;
7957;SDS011;4024;52.172;5.378;2023-05-03T07:04:02;7.97;;;3.00;;
7957;SDS011;4024;52.172;5.378;2023-05-03T07:06:27;5.40;;;2.80;;
7957;SDS011;4024;52.172;5.378;2023-05-03T07:08:53;3.53;;;2.23;;
7957;SDS011;4024;52.172;5.378;2023-05-03T07:11:19;4.83;;;2.70;;
7957;SDS011;4024;52.172;5.378;2023-05-03T07:13:52;4.03;;;2.40;;
7957;SDS011;4024;52.172;5.378;2023-05-03T07:16:18;5.07;;;2.13;;
7957;SDS011;4024;52.172;5.378;2023-05-03T07:18:44;7.53;;;2.73;;
7957;SDS011;4024;52.172;5.378;2023-05-03T07:21:11;3.83;;;2.10;;
7957;SDS011;4024;52.172;5.378;2023-05-03T07:23:38;3.20;;;2.40;;
7957;SDS011;4024;52.172;5.378;2023-05-03T07:26:04;4.97;;;2.50;;
7957;SDS011;4024;52.172;5.378;2023-05-03T07:28:29;3.87;;;2.10;;
7957;SDS011;4024;52.172;5.378;2023-05-03T07:30:55;4.77;;;2.50;;
7957;SDS011;4024;52.172;5.378;2023-05-03T07:33:21;7.70;;;2.47;;
7957;SDS011;4024;52.172;5.378;2023-05-03T07:35:46;8.20;;;2.50;;
7957;SDS011;4024;52.172;5.378;2023-05-03T07:38:13;3.33;;;2.30;;
7957;SDS011;4024;52.172;5.378;2023-05-03T07:40:39;3.07;;;2.23;;
7957;SDS011;4024;52.172;5.378;2023-05-03T07:43:05;3.47;;;1.93;;
7957;SDS011;4024;52.172;5.378;2023-05-03T07:45:32;3.47;;;2.40;;
7957;SDS011;4024;52.172;5.378;2023-05-03T07:47:59;6.90;;;2.20;;
7957;SDS011;4024;52.172;5.378;2023-05-03T07:50:25;4.97;;;2.10;;
7957;SDS011;4024;52.172;5.378;2023-05-03T07:52:51;4.70;;;2.80;;
7957;SDS011;4024;52.172;5.378;2023-05-03T07:55:17;4.77;;;2.53;;
7957;SDS011;4024;52.172;5.378;2023-05-03T07:57:44;2.90;;;2.30;;
7957;SDS011;4024;52.172;5.378;2023-05-03T08:00:09;6.57;;;2.60;;
7957;SDS011;4024;52.172;5.378;2023-05-03T08:02:36;3.83;;;2.83;;
7957;SDS011;4024;52.172;5.378;2023-05-03T08:05:02;4.70;;;2.33;;
7957;SDS011;4024;52.172;5.378;2023-05-03T08:07:32;7.83;;;2.57;;
7957;SDS011;4024;52.172;5.378;2023-05-03T08:09:58;5.03;;;2.50;;
7957;SDS011;4024;52.172;5.378;2023-05-03T08:12:24;5.63;;;2.47;;
7957;SDS011;4024;52.172;5.378;2023-05-03T08:14:52;4.07;;;2.20;;
7957;SDS011;4024;52.172;5.378;2023-05-03T08:17:19;4.43;;;2.13;;
7957;SDS011;4024;52.172;5.378;2023-05-03T08:19:46;4.77;;;2.40;;
7957;SDS011;4024;52.172;5.378;2023-05-03T08:22:12;4.83;;;2.27;;
7957;SDS011;4024;52.172;5.378;2023-05-03T08:24:38;4.03;;;2.30;;
7957;SDS011;4024;52.172;5.378;2023-05-03T08:27:06;4.70;;;2.23;;
7957;SDS011;4024;52.172;5.378;2023-05-03T08:29:33;3.33;;;2.30;;
7957;SDS011;4024;52.172;5.378;2023-05-03T08:32:01;8.00;;;2.63;;
7957;SDS011;4024;52.172;5.378;2023-05-03T08:34:28;6.03;;;2.40;;
7957;SDS011;4024;52.172;5.378;2023-05-03T08:36:54;6.33;;;2.83;;
7957;SDS011;4024;52.172;5.378;2023-05-03T08:39:21;4.80;;;2.57;;
7957;SDS011;4024;52.172;5.378;2023-05-03T08:41:48;4.83;;;2.53;;
7957;SDS011;4024;52.172;5.378;2023-05-03T08:44:16;3.97;;;2.10;;
7957;SDS011;4024;52.172;5.378;2023-05-03T08:46:46;3.50;;;2.40;;
7957;SDS011;4024;52.172;5.378;2023-05-03T08:49:12;3.70;;;2.57;;
7957;SDS011;4024;52.172;5.378;2023-05-03T08:51:39;7.07;;;2.67;;
7957;SDS011;4024;52.172;5.378;2023-05-03T08:54:11;6.73;;;2.47;;
7957;SDS011;4024;52.172;5.378;2023-05-03T08:56:41;4.37;;;2.37;;
7957;SDS011;4024;52.172;5.378;2023-05-03T08:59:08;5.33;;;2.50;;
7957;SDS011;4024;52.172;5.378;2023-05-03T09:01:35;3.83;;;2.43;;
7957;SDS011;4024;52.172;5.378;2023-05-03T09:04:02;4.10;;;2.10;;
7957;SDS011;4024;52.172;5.378;2023-05-03T09:06:29;4.90;;;2.30;;
7957;SDS011;4024;52.172;5.378;2023-05-03T09:08:57;3.33;;;2.40;;
7957;SDS011;4024;52.172;5.378;2023-05-03T09:11:24;5.97;;;2.43;;
7957;SDS011;4024;52.172;5.378;2023-05-03T09:16:42;4.33;;;2.40;;
7957;SDS011;4024;52.172;5.378;2023-05-03T09:19:09;3.57;;;2.33;;
7957;SDS011;4024;52.172;5.378;2023-05-03T09:21:36;5.13;;;2.60;;
7957;SDS011;4024;52.172;5.378;2023-05-03T09:26:48;4.40;;;2.50;;
7957;SDS011;4024;52.172;5.378;2023-05-03T09:29:30;4.60;;;2.40;;
7957;SDS011;4024;52.172;5.378;2023-05-03T09:32:01;3.60;;;2.57;;
7957;SDS011;4024;52.172;5.378;2023-05-03T09:34:29;5.83;;;2.80;;
7957;SDS011;4024;52.172;5.378;2023-05-03T09:36:56;4.73;;;2.80;;
7957;SDS011;4024;52.172;5.378;2023-05-03T09:39:22;5.80;;;2.77;;
7957;SDS011;4024;52.172;5.378;2023-05-03T09:41:47;4.00;;;2.57;;
7957;SDS011;4024;52.172;5.378;2023-05-03T09:44:13;5.77;;;2.50;;
7957;SDS011;4024;52.172;5.378;2023-05-03T09:46:59;8.50;;;2.43;;
7957;SDS011;4024;52.172;5.378;2023-05-03T09:49:30;3.60;;;2.47;;
7957;SDS011;4024;52.172;5.378;2023-05-03T09:51:57;8.17;;;2.57;;
7957;SDS011;4024;52.172;5.378;2023-05-03T09:54:27;4.87;;;2.70;;
7957;SDS011;4024;52.172;5.378;2023-05-03T09:56:56;4.73;;;2.97;;
7957;SDS011;4024;52.172;5.378;2023-05-03T09:59:23;4.17;;;2.60;;
7957;SDS011;4024;52.172;5.378;2023-05-03T10:01:49;3.70;;;2.63;;
7957;SDS011;4024;52.172;5.378;2023-05-03T10:04:19;4.50;;;2.57;;
7957;SDS011;4024;52.172;5.378;2023-05-03T10:06:48;4.90;;;2.83;;
7957;SDS011;4024;52.172;5.378;2023-05-03T10:09:18;4.50;;;2.77;;
7957;SDS011;4024;52.172;5.378;2023-05-03T10:11:53;6.63;;;2.93;;
7957;SDS011;4024;52.172;5.378;2023-05-03T10:14:24;7.30;;;3.33;;
7957;SDS011;4024;52.172;5.378;2023-05-03T10:17:00;6.80;;;2.87;;
7957;SDS011;4024;52.172;5.378;2023-05-03T10:19:30;4.63;;;2.73;;
7957;SDS011;4024;52.172;5.378;2023-05-03T10:22:15;4.57;;;2.40;;
7957;SDS011;4024;52.172;5.378;2023-05-03T10:28:10;4.40;;;3.00;;
7957;SDS011;4024;52.172;5.378;2023-05-03T10:32:53;4.37;;;3.53;;
7957;SDS011;4024;52.172;5.378;2023-05-03T10:35:20;4.37;;;2.60;;
7957;SDS011;4024;52.172;5.378;2023-05-03T10:37:51;6.20;;;2.70;;
7957;SDS011;4024;52.172;5.378;2023-05-03T10:40:17;4.67;;;2.67;;
7957;SDS011;4024;52.172;5.378;2023-05-03T10:42:44;5.10;;;2.40;;
7957;SDS011;4024;52.172;5.378;2023-05-03T10:45:46;8.13;;;2.90;;
7957;SDS011;4024;52.172;5.378;2023-05-03T10:50:36;6.87;;;3.53;;
7957;SDS011;4024;52.172;5.378;2023-05-03T10:53:03;5.60;;;2.80;;
7957;SDS011;4024;52.172;5.378;2023-05-03T10:55:29;5.50;;;2.90;;
7957;SDS011;4024;52.172;5.378;2023-05-03T10:57:55;5.93;;;3.10;;
7957;SDS011;4024;52.172;5.378;2023-05-03T11:05:42;4.07;;;3.00;;
7957;SDS011;4024;52.172;5.378;2023-05-03T11:08:09;4.50;;;2.80;;
7957;SDS011;4024;52.172;5.378;2023-05-03T11:10:35;6.50;;;3.00;;
7957;SDS011;4024;52.172;5.378;2023-05-03T11:13:00;3.67;;;2.60;;
7957;SDS011;4024;52.172;5.378;2023-05-03T11:15:26;5.40;;;2.77;;
7957;SDS011;4024;52.172;5.378;2023-05-03T11:17:52;5.90;;;2.80;;
7957;SDS011;4024;52.172;5.378;2023-05-03T11:20:17;4.67;;;3.23;;
7957;SDS011;4024;52.172;5.378;2023-05-03T11:22:43;4.57;;;3.40;;
7957;SDS011;4024;52.172;5.378;2023-05-03T11:25:10;4.93;;;3.23;;
7957;SDS011;4024;52.172;5.378;2023-05-03T11:27:35;5.97;;;3.00;;
7957;SDS011;4024;52.172;5.378;2023-05-03T11:30:01;7.33;;;3.10;;
7957;SDS011;4024;52.172;5.378;2023-05-03T11:32:27;4.80;;;2.83;;
7957;SDS011;4024;52.172;5.378;2023-05-03T11:34:54;5.00;;;3.07;;
7957;SDS011;4024;52.172;5.378;2023-05-03T11:37:23;5.00;;;3.07;;
7957;SDS011;4024;52.172;5.378;2023-05-03T11:39:48;4.83;;;3.07;;
7957;SDS011;4024;52.172;5.378;2023-05-03T11:42:14;3.60;;;2.93;;
7957;SDS011;4024;52.172;5.378;2023-05-03T11:44:39;6.37;;;3.10;;
7957;SDS011;4024;52.172;5.378;2023-05-03T11:47:06;4.00;;;2.70;;
7957;SDS011;4024;52.172;5.378;2023-05-03T11:49:33;4.30;;;3.10;;
7957;SDS011;4024;52.172;5.378;2023-05-03T11:51:58;4.30;;;2.80;;
7957;SDS011;4024;52.172;5.378;2023-05-03T11:54:24;6.80;;;2.90;;
7957;SDS011;4024;52.172;5.378;2023-05-03T11:56:54;4.63;;;2.80;;
7957;SDS011;4024;52.172;5.378;2023-05-03T11:59:32;3.83;;;2.73;;
7957;SDS011;4024;52.172;5.378;2023-05-03T12:02:00;3.97;;;3.00;;
7957;SDS011;4024;52.172;5.378;2023-05-03T12:04:28;4.63;;;3.00;;
7957;SDS011;4024;52.172;5.378;2023-05-03T12:06:54;5.87;;;3.00;;
7957;SDS011;4024;52.172;5.378;2023-05-03T12:09:20;4.03;;;3.00;;
7957;SDS011;4024;52.172;5.378;2023-05-03T12:11:48;6.97;;;2.80;;
7957;SDS011;4024;52.172;5.378;2023-05-03T12:14:14;4.97;;;2.77;;
7957;SDS011;4024;52.172;5.378;2023-05-03T12:16:49;6.00;;;3.00;;
7957;SDS011;4024;52.172;5.378;2023-05-03T12:19:23;4.77;;;3.00;;
7957;SDS011;4024;52.172;5.378;2023-05-03T12:21:50;6.80;;;2.80;;
7957;SDS011;4024;52.172;5.378;2023-05-03T12:24:16;7.67;;;3.10;;
7957;SDS011;4024;52.172;5.378;2023-05-03T12:26:43;3.07;;;2.77;;
7957;SDS011;4024;52.172;5.378;2023-05-03T12:29:09;3.47;;;2.87;;
7957;SDS011;4024;52.172;5.378;2023-05-03T12:31:36;3.53;;;3.10;;
7957;SDS011;4024;52.172;5.378;2023-05-03T12:34:02;4.80;;;3.13;;
7957;SDS011;4024;52.172;5.378;2023-05-03T12:36:30;5.67;;;3.33;;
7957;SDS011;4024;52.172;5.378;2023-05-03T12:38:57;5.90;;;3.27;;
7957;SDS011;4024;52.172;5.378;2023-05-03T12:41:26;6.23;;;3.20;;
7957;SDS011;4024;52.172;5.378;2023-05-03T12:43:55;5.83;;;3.43;;
7957;SDS011;4024;52.172;5.378;2023-05-03T12:46:22;4.50;;;3.10;;
7957;SDS011;4024;52.172;5.378;2023-05-03T12:48:48;5.67;;;2.80;;
7957;SDS011;4024;52.172;5.378;2023-05-03T12:51:14;4.47;;;3.53;;
7957;SDS011;4024;52.172;5.378;2023-05-03T12:53:40;4.27;;;2.90;;
7957;SDS011;4024;52.172;5.378;2023-05-03T12:56:05;4.83;;;3.40;;
7957;SDS011;4024;52.172;5.378;2023-05-03T12:58:31;6.73;;;3.67;;
7957;SDS011;4024;52.172;5.378;2023-05-03T13:00:58;6.00;;;3.50;;
7957;SDS011;4024;52.172;5.378;2023-05-03T13:03:24;5.57;;;3.60;;
7957;SDS011;4024;52.172;5.378;2023-05-03T13:05:49;5.73;;;3.60;;
7957;SDS011;4024;52.172;5.378;2023-05-03T13:08:15;3.83;;;3.30;;
7957;SDS011;4024;52.172;5.378;2023-05-03T13:10:41;6.47;;;3.43;;
7957;SDS011;4024;52.172;5.378;2023-05-03T13:13:07;3.83;;;3.40;;
7957;SDS011;4024;52.172;5.378;2023-05-03T13:15:33;4.47;;;3.50;;
7957;SDS011;4024;52.172;5.378;2023-05-03T13:18:00;7.57;;;3.57;;
7957;SDS011;4024;52.172;5.378;2023-05-03T13:20:29;4.33;;;3.50;;
7957;SDS011;4024;52.172;5.378;2023-05-03T13:22:56;4.60;;;3.63;;
7957;SDS011;4024;52.172;5.378;2023-05-03T13:25:22;4.90;;;3.37;;
7957;SDS011;4024;52.172;5.378;2023-05-03T13:27:48;7.57;;;4.00;;
7957;SDS011;4024;52.172;5.378;2023-05-03T13:30:20;5.03;;;3.70;;
7957;SDS011;4024;52.172;5.378;2023-05-03T13:32:47;4.80;;;3.67;;
7957;SDS011;4024;52.172;5.378;2023-05-03T13:35:15;4.07;;;3.60;;
7957;SDS011;4024;52.172;5.378;2023-05-03T13:37:41;7.23;;;4.30;;
7957;SDS011;4024;52.172;5.378;2023-05-03T13:40:07;5.07;;;3.87;;
7957;SDS011;4024;52.172;5.378;2023-05-03T13:42:34;6.30;;;4.53;;
7957;SDS011;4024;52.172;5.378;2023-05-03T13:45:00;7.87;;;3.87;;
7957;SDS011;4024;52.172;5.378;2023-05-03T13:47:26;6.37;;;3.63;;
7957;SDS011;4024;52.172;5.378;2023-05-03T13:49:54;6.60;;;3.80;;
7957;SDS011;4024;52.172;5.378;2023-05-03T13:52:21;6.43;;;3.97;;
7957;SDS011;4024;52.172;5.378;2023-05-03T13:54:47;7.87;;;4.23;;
7957;SDS011;4024;52.172;5.378;2023-05-03T13:57:13;6.40;;;4.40;;
7957;SDS011;4024;52.172;5.378;2023-05-03T13:59:38;8.73;;;4.03;;
7957;SDS011;4024;52.172;5.378;2023-05-03T14:02:05;8.33;;;4.33;;
7957;SDS011;4024;52.172;5.378;2023-05-03T14:04:31;5.13;;;4.00;;
7957;SDS011;4024;52.172;5.378;2023-05-03T14:06:57;5.47;;;3.97;;
7957;SDS011;4024;52.172;5.378;2023-05-03T14:09:26;7.13;;;4.17;;
7957;SDS011;4024;52.172;5.378;2023-05-03T14:11:52;5.13;;;3.90;;
7957;SDS011;4024;52.172;5.378;2023-05-03T14:14:17;4.73;;;3.60;;
7957;SDS011;4024;52.172;5.378;2023-05-03T14:16:43;4.73;;;3.77;;
7957;SDS011;4024;52.172;5.378;2023-05-03T14:19:10;4.53;;;4.10;;
7957;SDS011;4024;52.172;5.378;2023-05-03T14:21:36;12.23;;;4.47;;
7957;SDS011;4024;52.172;5.378;2023-05-03T14:24:02;5.43;;;4.30;;
7957;SDS011;4024;52.172;5.378;2023-05-03T14:26:29;6.00;;;4.20;;
7957;SDS011;4024;52.172;5.378;2023-05-03T14:28:54;5.17;;;4.50;;
7957;SDS011;4024;52.172;5.378;2023-05-03T14:31:20;5.20;;;4.30;;
7957;SDS011;4024;52.172;5.378;2023-05-03T14:33:45;6.53;;;4.23;;
7957;SDS011;4024;52.172;5.378;2023-05-03T14:36:11;4.67;;;4.27;;
7957;SDS011;4024;52.172;5.378;2023-05-03T14:38:37;6.10;;;4.23;;
7957;SDS011;4024;52.172;5.378;2023-05-03T14:41:02;6.07;;;4.07;;
7957;SDS011;4024;52.172;5.378;2023-05-03T14:43:28;4.43;;;3.90;;
7957;SDS011;4024;52.172;5.378;2023-05-03T14:45:54;5.30;;;3.60;;
7957;SDS011;4024;52.172;5.378;2023-05-03T14:48:20;4.30;;;3.70;;
7957;SDS011;4024;52.172;5.378;2023-05-03T14:50:49;4.53;;;4.10;;
7957;SDS011;4024;52.172;5.378;2023-05-03T14:53:15;5.73;;;4.50;;
7957;SDS011;4024;52.172;5.378;2023-05-03T14:55:41;8.60;;;4.63;;
7957;SDS011;4024;52.172;5.378;2023-05-03T14:58:07;5.83;;;4.40;;
7957;SDS011;4024;52.172;5.378;2023-05-03T15:00:36;5.60;;;4.50;;
7957;SDS011;4024;52.172;5.378;2023-05-03T15:03:04;4.40;;;4.00;;
7957;SDS011;4024;52.172;5.378;2023-05-03T15:05:29;4.87;;;4.43;;
7957;SDS011;4024;52.172;5.378;2023-05-03T15:07:56;5.10;;;4.60;;
7957;SDS011;4024;52.172;5.378;2023-05-03T15:10:23;7.43;;;4.70;;
7957;SDS011;4024;52.172;5.378;2023-05-03T15:12:49;7.20;;;4.53;;
7957;SDS011;4024;52.172;5.378;2023-05-03T15:15:14;5.13;;;4.20;;
7957;SDS011;4024;52.172;5.378;2023-05-03T15:17:40;6.20;;;4.47;;
7957;SDS011;4024;52.172;5.378;2023-05-03T15:20:06;5.27;;;4.40;;
7957;SDS011;4024;52.172;5.378;2023-05-03T15:22:34;5.50;;;4.90;;
7957;SDS011;4024;52.172;5.378;2023-05-03T15:24:59;7.50;;;5.00;;
7957;SDS011;4024;52.172;5.378;2023-05-03T15:27:25;4.90;;;4.23;;
7957;SDS011;4024;52.172;5.378;2023-05-03T15:29:51;6.50;;;4.57;;
7957;SDS011;4024;52.172;5.378;2023-05-03T15:32:16;5.63;;;4.00;;
7957;SDS011;4024;52.172;5.378;2023-05-03T15:34:42;5.67;;;4.23;;
7957;SDS011;4024;52.172;5.378;2023-05-03T15:37:07;4.73;;;4.00;;
7957;SDS011;4024;52.172;5.378;2023-05-03T15:39:36;4.77;;;4.30;;